createdAt,value
2018-06-30T00:02:23.877Z,93959.98
2018-06-30T00:04:50.196Z,93968.20
2018-06-30T00:07:16.634Z,93969.67
2018-06-30T00:09:42.994Z,93976.23
2018-06-30T00:12:09.369Z,93975.30
2018-06-30T00:14:35.729Z,93978.97
2018-06-30T00:17:02.167Z,93983.77
2018-06-30T00:19:28.600Z,93976.80
2018-06-30T00:21:54.954Z,93981.53
2018-06-30T00:24:21.348Z,93984.36
2018-06-30T00:26:47.728Z,93986.34
2018-06-30T00:29:14.084Z,93979.37
2018-06-30T00:31:40.439Z,93976.64
2018-06-30T00:34:06.810Z,93973.81
2018-06-30T00:36:33.179Z,93971.41
2018-06-30T00:38:59.632Z,93969.77
2018-06-30T00:41:25.980Z,93961.64
2018-06-30T00:43:52.401Z,93966.51
2018-06-30T00:46:18.856Z,93970.78
2018-06-30T00:48:45.232Z,93968.27
2018-06-30T00:51:11.558Z,93968.48
2018-06-30T00:53:37.915Z,93961.23
2018-06-30T00:56:04.243Z,93959.83
2018-06-30T00:58:30.599Z,93958.13
2018-06-30T01:00:57.061Z,93956.97
2018-06-30T01:03:23.467Z,93950.63
2018-06-30T01:05:49.839Z,93952.58
2018-06-30T01:08:16.165Z,93947.91
2018-06-30T01:10:42.528Z,93945.33
2018-06-30T01:13:08.896Z,93942.97
2018-06-30T01:15:35.261Z,93943.70
2018-06-30T01:18:01.580Z,93944.80
2018-06-30T01:20:27.963Z,93946.68
2018-06-30T01:22:54.284Z,93951.10
2018-06-30T01:25:20.639Z,93944.27
2018-06-30T01:27:46.975Z,93942.38
2018-06-30T01:30:13.332Z,93936.39
2018-06-30T01:32:39.688Z,93940.06
2018-06-30T01:35:06.046Z,93937.55
2018-06-30T01:37:32.420Z,93929.70
2018-06-30T01:39:58.772Z,93927.95
2018-06-30T01:42:25.134Z,93930.30
2018-06-30T01:44:51.435Z,93924.50
2018-06-30T01:47:17.807Z,93926.79
2018-06-30T01:49:44.175Z,93926.07
2018-06-30T01:52:10.492Z,93918.07
2018-06-30T01:54:36.839Z,93919.01
2018-06-30T01:57:03.194Z,93914.68
2018-06-30T01:59:29.515Z,93919.07
2018-06-30T02:01:55.863Z,93918.20
2018-06-30T02:04:22.259Z,93918.54
2018-06-30T02:06:48.578Z,93916.44
2018-06-30T02:09:14.961Z,93921.17
2018-06-30T02:11:41.295Z,93924.16
2018-06-30T02:14:07.621Z,93925.94
2018-06-30T02:16:33.978Z,93909.09
2018-06-30T02:19:00.310Z,93914.55
2018-06-30T02:21:26.632Z,93910.89
2018-06-30T02:23:53.007Z,93910.10
2018-06-30T02:26:19.440Z,93909.76
2018-06-30T02:28:45.764Z,93909.76
2018-06-30T02:31:12.103Z,93904.33
2018-06-30T02:33:38.439Z,93910.98
2018-06-30T02:36:04.794Z,93912.27
2018-06-30T02:38:31.121Z,93913.95
2018-06-30T02:40:57.473Z,93914.15
2018-06-30T02:43:23.829Z,93911.27
2018-06-30T02:45:50.167Z,93912.73
2018-06-30T02:48:16.563Z,93916.66
2018-06-30T02:50:42.892Z,93923.15
2018-06-30T02:53:09.231Z,93921.55
2018-06-30T02:55:35.620Z,93917.22
2018-06-30T02:58:01.992Z,93923.37
2018-06-30T03:00:28.368Z,93924.44
2018-06-30T03:02:54.740Z,93919.58
2018-06-30T03:05:21.083Z,93927.48
2018-06-30T03:07:47.404Z,93928.39
2018-06-30T03:10:13.779Z,93933.66
2018-06-30T03:12:40.164Z,93934.60
2018-06-30T03:15:06.516Z,93937.23
2018-06-30T03:17:32.833Z,93934.31
2018-06-30T03:19:59.153Z,93935.56
2018-06-30T03:22:25.496Z,93933.53
2018-06-30T03:24:51.881Z,93931.15
2018-06-30T03:27:18.242Z,93933.37
2018-06-30T03:29:44.603Z,93927.41
2018-06-30T03:32:10.987Z,93930.80
2018-06-30T03:34:37.309Z,93922.61
2018-06-30T03:37:03.672Z,93926.98
2018-06-30T03:39:29.994Z,93933.66
2018-06-30T03:41:56.431Z,93931.09
2018-06-30T03:44:22.760Z,93929.45
2018-06-30T03:46:49.132Z,93925.47
2018-06-30T03:49:15.489Z,93930.55
2018-06-30T03:51:41.813Z,93939.80
2018-06-30T03:54:08.166Z,93938.86
2018-06-30T03:56:34.520Z,93930.20
2018-06-30T03:59:00.938Z,93934.81
2018-06-30T04:01:27.470Z,93934.25
2018-06-30T04:03:53.821Z,93942.59
2018-06-30T04:06:20.169Z,93945.77
2018-06-30T04:08:46.520Z,93935.95
2018-06-30T04:11:12.844Z,93926.41
2018-06-30T04:13:39.213Z,93926.75
2018-06-30T04:16:05.579Z,93927.48
2018-06-30T04:18:31.897Z,93918.22
2018-06-30T04:20:58.270Z,93921.95
2018-06-30T04:23:24.611Z,93916.19
2018-06-30T04:25:50.942Z,93925.94
2018-06-30T04:28:17.305Z,93932.44
2018-06-30T04:30:43.653Z,93935.82
2018-06-30T04:33:10.041Z,93937.89
2018-06-30T04:35:36.385Z,93946.58
2018-06-30T04:38:02.775Z,93942.56
2018-06-30T04:40:29.148Z,93946.11
2018-06-30T04:42:55.572Z,93947.93
2018-06-30T04:45:21.899Z,93934.53
2018-06-30T04:47:48.257Z,93948.19
2018-06-30T04:50:14.585Z,93932.00
2018-06-30T04:52:40.902Z,93934.94
2018-06-30T04:55:07.234Z,93928.89
2018-06-30T04:57:33.639Z,93931.40
2018-06-30T05:00:00.010Z,93934.03
2018-06-30T05:02:26.332Z,93941.63
2018-06-30T05:04:52.745Z,93933.09
2018-06-30T05:07:19.155Z,93941.22
2018-06-30T05:09:45.550Z,93941.63
2018-06-30T05:12:11.900Z,93943.10
2018-06-30T05:14:38.268Z,93941.63
2018-06-30T05:17:04.627Z,93949.06
2018-06-30T05:19:30.997Z,93958.06
2018-06-30T05:21:57.446Z,93962.80
2018-06-30T05:24:23.769Z,93953.67
2018-06-30T05:26:50.099Z,93959.23
2018-06-30T05:29:16.446Z,93958.81
2018-06-30T05:31:42.876Z,93963.74
2018-06-30T05:34:09.224Z,93967.76
2018-06-30T05:36:35.557Z,93961.05
2018-06-30T05:39:01.890Z,93962.39
2018-06-30T05:41:28.321Z,93971.61
2018-06-30T05:43:54.693Z,93969.30
2018-06-30T05:46:21.037Z,93974.19
2018-06-30T05:48:47.370Z,93971.80
2018-06-30T05:51:13.700Z,93969.17
2018-06-30T05:53:40.037Z,93964.50
2018-06-30T05:56:06.439Z,93971.74
2018-06-30T05:58:32.770Z,93961.39
2018-06-30T06:00:59.133Z,93967.01
2018-06-30T06:03:25.487Z,93966.06
2018-06-30T06:05:51.822Z,93963.22
2018-06-30T06:08:18.176Z,93961.30
2018-06-30T06:10:44.557Z,93964.87
2018-06-30T06:13:10.890Z,93962.05
2018-06-30T06:15:37.267Z,93966.26
2018-06-30T06:18:03.598Z,93960.58
2018-06-30T06:20:29.963Z,93958.95
2018-06-30T06:22:56.285Z,93958.82
2018-06-30T06:25:22.617Z,93966.31
2018-06-30T06:27:49.036Z,93970.17
2018-06-30T06:30:15.382Z,93968.55
2018-06-30T06:32:41.901Z,93967.33
2018-06-30T06:35:08.137Z,93960.83
2018-06-30T06:37:34.523Z,93970.93
2018-06-30T06:40:00.873Z,93974.23
2018-06-30T06:42:27.221Z,93965.28
2018-06-30T06:44:53.660Z,93968.95
2018-06-30T06:47:20.067Z,93963.06
2018-06-30T06:49:46.394Z,93963.06
2018-06-30T06:52:12.732Z,93958.10
2018-06-30T06:54:39.089Z,93966.52
2018-06-30T06:57:05.423Z,93968.98
2018-06-30T06:59:31.759Z,93963.84
2018-06-30T07:01:58.165Z,93971.03
2018-06-30T07:04:24.525Z,93969.74
2018-06-30T07:06:50.865Z,93964.66
2018-06-30T07:09:17.255Z,93971.69
2018-06-30T07:11:43.614Z,93963.84
2018-06-30T07:14:10.049Z,93960.80
2018-06-30T07:16:36.399Z,93962.02
2018-06-30T07:19:02.830Z,93960.86
2018-06-30T07:21:29.216Z,93974.02
2018-06-30T07:23:55.701Z,93979.00
2018-06-30T07:26:22.048Z,93972.91
2018-06-30T07:28:48.394Z,93973.38
2018-06-30T07:31:14.802Z,93979.87
2018-06-30T07:33:41.190Z,93980.22
2018-06-30T07:36:07.557Z,93978.94
2018-06-30T07:38:34.055Z,93982.64
2018-06-30T07:41:00.449Z,93977.30
2018-06-30T07:43:26.906Z,93986.66
2018-06-30T07:45:53.237Z,93987.47
2018-06-30T07:48:19.722Z,93982.27
2018-06-30T07:50:46.086Z,93992.09
2018-06-30T07:53:12.452Z,93986.31
2018-06-30T07:55:38.821Z,93992.27
2018-06-30T07:58:05.170Z,93983.14
2018-06-30T08:00:31.804Z,93991.52
2018-06-30T08:02:57.943Z,93986.66
2018-06-30T08:05:24.281Z,93979.47
2018-06-30T08:07:50.647Z,93981.10
2018-06-30T08:10:17.029Z,93972.37
2018-06-30T08:12:43.351Z,93982.92
2018-06-30T08:15:09.683Z,93989.13
2018-06-30T08:17:36.090Z,93979.78
2018-06-30T08:20:02.463Z,93983.58
2018-06-30T08:22:28.796Z,93987.63
2018-06-30T08:24:55.161Z,93994.59
2018-06-30T08:27:21.517Z,93994.06
2018-06-30T08:29:47.886Z,93998.80
2018-06-30T08:32:14.267Z,93989.16
2018-06-30T08:34:40.656Z,93999.05
2018-06-30T08:37:07.028Z,93999.52
2018-06-30T08:39:33.391Z,93991.95
2018-06-30T08:41:59.746Z,93996.06
2018-06-30T08:44:26.085Z,94000.30
2018-06-30T08:46:52.418Z,94000.05
2018-06-30T08:49:18.793Z,93999.41
2018-06-30T08:51:45.145Z,93996.90
2018-06-30T08:54:11.480Z,94008.80
2018-06-30T08:56:37.846Z,94012.53
2018-06-30T08:59:04.182Z,94017.05
2018-06-30T09:01:30.546Z,94014.66
2018-06-30T09:03:56.872Z,94023.55
2018-06-30T09:06:23.308Z,94027.59
2018-06-30T09:08:49.590Z,94030.86
2018-06-30T09:11:15.961Z,94037.77
2018-06-30T09:13:42.287Z,94029.41
2018-06-30T09:16:08.615Z,94026.88
2018-06-30T09:18:34.976Z,94030.48
2018-06-30T09:21:01.320Z,94027.47
2018-06-30T09:23:27.657Z,94042.01
2018-06-30T09:25:54.074Z,94036.04
2018-06-30T09:28:20.453Z,94044.58
2018-06-30T09:30:46.771Z,94055.64
2018-06-30T09:33:13.119Z,94055.01
2018-06-30T09:35:39.451Z,94044.52
2018-06-30T09:38:05.856Z,94056.64
2018-06-30T09:40:32.190Z,94052.20
2018-06-30T09:42:58.508Z,94057.45
2018-06-30T09:45:24.892Z,94054.78
2018-06-30T09:47:51.223Z,94055.81
2018-06-30T09:50:17.559Z,94058.05
2018-06-30T09:52:43.890Z,94060.41
2018-06-30T09:55:10.258Z,94059.93
2018-06-30T09:57:36.574Z,94046.17
2018-06-30T10:00:02.988Z,94053.67
2018-06-30T10:02:29.359Z,94054.96
2018-06-30T10:04:55.699Z,94059.30
2018-06-30T10:07:22.070Z,94060.67
2018-06-30T10:09:48.376Z,94057.69
2018-06-30T10:12:14.751Z,94057.00
2018-06-30T10:14:41.093Z,94054.52
2018-06-30T10:17:07.417Z,94051.44
2018-06-30T10:19:33.862Z,94056.52
2018-06-30T10:22:00.172Z,94055.58
2018-06-30T10:24:26.583Z,94045.56
2018-06-30T10:26:53.016Z,94054.88
2018-06-30T10:29:19.402Z,94053.05
2018-06-30T10:31:45.729Z,94058.52
2018-06-30T10:34:12.122Z,94053.78
2018-06-30T10:36:38.439Z,94059.20
2018-06-30T10:39:04.758Z,94061.31
2018-06-30T10:41:31.079Z,94068.66
2018-06-30T10:43:57.412Z,94062.09
2018-06-30T10:46:23.743Z,94069.41
2018-06-30T10:48:50.112Z,94073.69
2018-06-30T10:51:17.271Z,94069.28
2018-06-30T10:53:43.599Z,94059.70
2018-06-30T10:56:09.952Z,94068.48
2018-06-30T10:58:36.287Z,94057.87
2018-06-30T11:01:02.660Z,94058.59
2018-06-30T11:03:29.015Z,94067.83
2018-06-30T11:05:55.423Z,94064.67
2018-06-30T11:08:21.745Z,94050.66
2018-06-30T11:10:48.084Z,94052.60
2018-06-30T11:13:14.430Z,94048.96
2018-06-30T11:15:40.748Z,94048.61
2018-06-30T11:18:07.080Z,94057.53
2018-06-30T11:20:33.416Z,94052.66
2018-06-30T11:22:59.817Z,94049.03
2018-06-30T11:25:26.168Z,94057.52
2018-06-30T11:27:52.500Z,94053.25
2018-06-30T11:30:18.835Z,94054.88
2018-06-30T11:32:45.194Z,94047.05
2018-06-30T11:35:11.509Z,94048.14
2018-06-30T11:37:37.947Z,94046.69
2018-06-30T11:40:04.368Z,94044.52
2018-06-30T11:42:30.715Z,94046.22
2018-06-30T11:44:57.179Z,94045.17
2018-06-30T11:47:23.499Z,94044.70
2018-06-30T11:49:49.817Z,94043.22
2018-06-30T11:52:16.143Z,94038.25
2018-06-30T11:54:42.487Z,94042.39
2018-06-30T11:57:08.837Z,94034.19
2018-06-30T11:59:35.187Z,94041.88
2018-06-30T12:02:01.549Z,94042.63
2018-06-30T12:04:27.881Z,94034.89
2018-06-30T12:06:54.230Z,94032.92
2018-06-30T12:09:20.637Z,94035.30
2018-06-30T12:11:46.936Z,94038.53
2018-06-30T12:14:13.266Z,94035.31
2018-06-30T12:16:39.597Z,94052.34
2018-06-30T12:19:05.936Z,94042.75
2018-06-30T12:21:32.328Z,94045.13
2018-06-30T12:23:58.694Z,94046.47
2018-06-30T12:26:25.094Z,94042.50
2018-06-30T12:28:51.402Z,94032.42
2018-06-30T12:31:17.836Z,94039.31
2018-06-30T12:33:44.159Z,94036.58
2018-06-30T12:36:10.481Z,94025.54
2018-06-30T12:38:36.807Z,94025.60
2018-06-30T12:41:03.190Z,94030.88
2018-06-30T12:43:29.516Z,94023.61
2018-06-30T12:45:55.873Z,94028.84
2018-06-30T12:48:22.202Z,94029.97
2018-06-30T12:50:48.535Z,94039.68
2018-06-30T12:53:14.901Z,94035.47
2018-06-30T12:55:41.277Z,94035.58
2018-06-30T12:58:07.609Z,94032.45
2018-06-30T13:00:33.991Z,94035.75
2018-06-30T13:03:00.306Z,94023.63
2018-06-30T13:05:26.684Z,94025.50
2018-06-30T13:07:53.050Z,94030.05
2018-06-30T13:10:19.393Z,94043.06
2018-06-30T13:12:45.756Z,94039.19
2018-06-30T13:15:12.076Z,94042.97
2018-06-30T13:17:38.475Z,94034.68
2018-06-30T13:20:04.795Z,94035.84
2018-06-30T13:22:31.127Z,94037.53
2018-06-30T13:24:57.496Z,94041.06
2018-06-30T13:27:23.878Z,94042.88
2018-06-30T13:29:50.235Z,94054.01
2018-06-30T13:32:16.568Z,94045.15
2018-06-30T13:34:42.888Z,94049.42
2018-06-30T13:37:09.216Z,94049.20
2018-06-30T13:39:35.613Z,94051.23
2018-06-30T13:42:01.961Z,94051.30
2018-06-30T13:44:28.284Z,94050.02
2018-06-30T13:46:54.605Z,94055.01
2018-06-30T13:49:21.013Z,94042.57
2018-06-30T13:51:47.361Z,94055.21
2018-06-30T13:54:13.686Z,94053.21
2018-06-30T13:56:40.040Z,94057.16
2018-06-30T13:59:06.377Z,94052.94
2018-06-30T14:01:32.701Z,94053.93
2018-06-30T14:03:59.087Z,94064.87
2018-06-30T14:06:25.404Z,94054.75
2018-06-30T14:08:51.733Z,94054.75
2018-06-30T14:11:18.057Z,94055.19
2018-06-30T14:13:44.382Z,94046.23
2018-06-30T14:16:10.712Z,94054.72
2018-06-30T14:18:37.105Z,94059.06
2018-06-30T14:21:03.398Z,94058.59
2018-06-30T14:23:29.787Z,94065.45
2018-06-30T14:25:56.080Z,94075.06
2018-06-30T14:28:22.403Z,94074.02
2018-06-30T14:30:48.735Z,94089.60
2018-06-30T14:33:15.063Z,94086.57
2018-06-30T14:35:41.387Z,94083.22
2018-06-30T14:38:07.738Z,94091.44
2018-06-30T14:40:34.084Z,94092.56
2018-06-30T14:43:00.419Z,94091.55
2018-06-30T14:45:26.759Z,94098.00
2018-06-30T14:47:53.152Z,94112.19
2018-06-30T14:50:19.478Z,94113.01
2018-06-30T14:52:45.800Z,94113.41
2018-06-30T14:55:12.213Z,94113.08
2018-06-30T14:57:38.491Z,94115.90
2018-06-30T15:00:04.873Z,94121.56
2018-06-30T15:02:31.204Z,94121.56
2018-06-30T15:04:57.600Z,94128.33
2018-06-30T15:07:23.960Z,94130.19
2018-06-30T15:09:50.296Z,94138.34
2018-06-30T15:12:16.675Z,94142.87
2018-06-30T15:14:43.003Z,94146.73
2018-06-30T15:17:09.323Z,94149.63
2018-06-30T15:19:35.688Z,94166.64
2018-06-30T15:22:02.010Z,94172.78
2018-06-30T15:24:28.410Z,94177.95
2018-06-30T15:26:54.745Z,94186.89
2018-06-30T15:29:21.067Z,94191.16
2018-06-30T15:31:47.437Z,94188.52
2018-06-30T15:34:13.784Z,94192.55
2018-06-30T15:36:40.166Z,94189.88
2018-06-30T15:39:06.483Z,94197.72
2018-06-30T15:41:32.855Z,94202.72
2018-06-30T15:43:59.170Z,94197.21
2018-06-30T15:46:25.537Z,94203.66
2018-06-30T15:48:51.923Z,94202.38
2018-06-30T15:51:18.279Z,94209.88
2018-06-30T15:53:44.652Z,94209.33
2018-06-30T15:56:10.982Z,94203.83
2018-06-30T15:58:37.358Z,94196.15
2018-06-30T16:01:03.789Z,94196.62
2018-06-30T16:03:30.143Z,94195.27
2018-06-30T16:05:56.561Z,94195.09
2018-06-30T16:08:22.956Z,94209.40
2018-06-30T16:10:49.383Z,94202.95
2018-06-30T16:13:15.708Z,94208.58
2018-06-30T16:15:42.040Z,94211.00
2018-06-30T16:18:08.399Z,94217.45
2018-06-30T16:20:34.711Z,94215.44
2018-06-30T16:23:01.184Z,94209.94
2018-06-30T16:25:27.557Z,94208.70
2018-06-30T16:27:53.914Z,94217.20
2018-06-30T16:30:20.247Z,94224.07
2018-06-30T16:32:46.616Z,94224.14
2018-06-30T16:35:13.017Z,94229.17
2018-06-30T16:37:39.341Z,94235.52
2018-06-30T16:40:05.652Z,94239.67
2018-06-30T16:42:32.020Z,94245.25
2018-06-30T16:44:58.426Z,94234.62
2018-06-30T16:47:24.821Z,94247.42
2018-06-30T16:49:51.168Z,94242.73
2018-06-30T16:52:17.514Z,94244.49
2018-06-30T16:54:43.876Z,94248.89
2018-06-30T16:57:10.198Z,94257.40
2018-06-30T16:59:36.545Z,94259.27
2018-06-30T17:02:02.959Z,94261.92
2018-06-30T17:04:29.340Z,94268.36
2018-06-30T17:06:55.688Z,94266.61
2018-06-30T17:09:22.080Z,94269.13
2018-06-30T17:11:48.454Z,94276.46
2018-06-30T17:14:14.782Z,94277.57
2018-06-30T17:16:41.182Z,94275.92
2018-06-30T17:19:07.542Z,94281.97
2018-06-30T17:21:33.939Z,94283.20
2018-06-30T17:24:00.276Z,94282.98
2018-06-30T17:26:26.794Z,94293.47
2018-06-30T17:28:53.080Z,94292.17
2018-06-30T17:31:19.474Z,94301.20
2018-06-30T17:33:45.797Z,94297.22
2018-06-30T17:36:12.153Z,94303.08
2018-06-30T17:38:38.505Z,94314.41
2018-06-30T17:41:04.853Z,94311.66
2018-06-30T17:43:31.253Z,94317.75
2018-06-30T17:45:57.635Z,94320.64
2018-06-30T17:48:23.987Z,94326.97
2018-06-30T17:50:50.366Z,94330.23
2018-06-30T17:53:16.691Z,94331.13
2018-06-30T17:55:43.057Z,94331.34
2018-06-30T17:58:09.414Z,94343.91
2018-06-30T18:00:35.744Z,94338.87
2018-06-30T18:03:02.065Z,94342.96
2018-06-30T18:05:28.435Z,94347.66
2018-06-30T18:07:54.798Z,94359.45
2018-06-30T18:10:21.206Z,94355.33
2018-06-30T18:12:47.613Z,94350.23
2018-06-30T18:15:13.932Z,94361.91
2018-06-30T18:17:40.264Z,94366.41
2018-06-30T18:20:06.629Z,94371.41
2018-06-30T18:22:32.992Z,94376.80
2018-06-30T18:24:59.417Z,94378.25
2018-06-30T18:27:25.747Z,94385.83
2018-06-30T18:29:52.076Z,94396.97
2018-06-30T18:32:18.425Z,94399.39
2018-06-30T18:34:44.759Z,94397.85
2018-06-30T18:37:11.126Z,94404.99
2018-06-30T18:39:37.451Z,94414.44
2018-06-30T18:42:03.823Z,94412.80
2018-06-30T18:44:30.135Z,94414.84
2018-06-30T18:46:56.503Z,94418.02
2018-06-30T18:49:22.868Z,94427.52
2018-06-30T18:51:49.237Z,94437.37
2018-06-30T18:54:15.576Z,94437.18
2018-06-30T18:56:41.953Z,94446.22
2018-06-30T18:59:08.272Z,94455.03
2018-06-30T19:01:34.609Z,94452.13
2018-06-30T19:04:00.999Z,94448.52
2018-06-30T19:06:27.336Z,94450.36
2018-06-30T19:08:53.730Z,94453.61
2018-06-30T19:11:20.070Z,94455.88
2018-06-30T19:13:46.444Z,94462.86
2018-06-30T19:16:12.792Z,94460.94
2018-06-30T19:18:39.119Z,94463.07
2018-06-30T19:21:05.451Z,94462.00
2018-06-30T19:23:31.778Z,94463.73
2018-06-30T19:25:58.196Z,94458.03
2018-06-30T19:28:24.576Z,94461.44
2018-06-30T19:30:50.946Z,94465.17
2018-06-30T19:33:17.323Z,94473.33
2018-06-30T19:35:43.650Z,94475.97
2018-06-30T19:38:10.032Z,94473.32
2018-06-30T19:40:36.417Z,94474.61
2018-06-30T19:43:03.759Z,94481.00
2018-06-30T19:45:30.195Z,94486.62
2018-06-30T19:47:56.687Z,94486.09
2018-06-30T19:50:23.445Z,94502.38
2018-06-30T19:52:50.900Z,94503.73
2018-06-30T19:55:17.396Z,94498.37
2018-06-30T19:57:47.762Z,94497.91
2018-06-30T20:00:14.958Z,94504.56
2018-06-30T20:02:41.443Z,94509.30
2018-06-30T20:05:09.028Z,94518.14
2018-06-30T20:07:35.611Z,94514.45
2018-06-30T20:10:02.844Z,94507.50
2018-06-30T20:12:29.373Z,94503.30
2018-06-30T20:14:55.816Z,94519.11
2018-06-30T20:17:22.179Z,94516.69
2018-06-30T20:19:48.512Z,94516.35
2018-06-30T20:22:14.892Z,94515.53
2018-06-30T20:24:41.252Z,94514.78
2018-06-30T20:27:07.586Z,94513.09
2018-06-30T20:29:33.945Z,94508.05
2018-06-30T20:32:00.316Z,94507.88
2018-06-30T20:34:26.683Z,94518.72
2018-06-30T20:36:53.028Z,94524.88
2018-06-30T20:39:19.358Z,94527.74
2018-06-30T20:41:45.683Z,94534.54
2018-06-30T20:44:12.052Z,94532.75
2018-06-30T20:46:38.404Z,94534.94
2018-06-30T20:49:04.779Z,94537.16
2018-06-30T20:51:31.162Z,94540.02
2018-06-30T20:53:57.528Z,94529.72
2018-06-30T20:56:23.916Z,94539.35
2018-06-30T20:58:50.292Z,94546.01
2018-06-30T21:01:16.628Z,94554.20
2018-06-30T21:03:43.012Z,94557.19
2018-06-30T21:06:09.380Z,94565.73
2018-06-30T21:08:35.713Z,94564.65
2018-06-30T21:11:02.082Z,94564.74
2018-06-30T21:13:28.435Z,94567.37
2018-06-30T21:15:54.801Z,94569.66
2018-06-30T21:18:21.129Z,94574.35
2018-06-30T21:20:47.542Z,94585.23
2018-06-30T21:23:13.855Z,94589.08
2018-06-30T21:25:40.224Z,94586.75
2018-06-30T21:28:06.579Z,94586.02
2018-06-30T21:30:32.971Z,94593.77
2018-06-30T21:32:59.330Z,94592.80
2018-06-30T21:35:25.643Z,94593.21
2018-06-30T21:37:52.050Z,94592.80
2018-06-30T21:40:18.398Z,94598.37
2018-06-30T21:42:44.743Z,94596.78
2018-06-30T21:45:11.081Z,94598.75
2018-06-30T21:47:37.512Z,94594.82
2018-06-30T21:50:03.877Z,94594.36
2018-06-30T21:52:30.215Z,94592.45
2018-06-30T21:54:56.617Z,94604.05
2018-06-30T21:57:22.934Z,94600.19
2018-06-30T21:59:49.295Z,94606.13
2018-06-30T22:02:15.620Z,94602.88
2018-06-30T22:04:41.975Z,94592.31
2018-06-30T22:07:08.296Z,94597.47
2018-06-30T22:09:34.668Z,94594.74
2018-06-30T22:12:01.072Z,94599.95
2018-06-30T22:14:27.429Z,94599.19
2018-06-30T22:16:53.765Z,94604.11
2018-06-30T22:19:20.091Z,94604.70
2018-06-30T22:21:46.508Z,94609.92
2018-06-30T22:24:12.823Z,94603.83
2018-06-30T22:26:39.170Z,94605.17
2018-06-30T22:29:05.493Z,94606.46
2018-06-30T22:31:31.816Z,94613.52
2018-06-30T22:33:58.176Z,94609.66
2018-06-30T22:36:24.514Z,94606.25
2018-06-30T22:38:50.893Z,94602.97
2018-06-30T22:41:17.217Z,94610.39
2018-06-30T22:43:43.523Z,94602.80
2018-06-30T22:46:09.840Z,94602.30
2018-06-30T22:48:36.198Z,94611.73
2018-06-30T22:51:02.554Z,94617.77
2018-06-30T22:53:28.893Z,94616.48
2018-06-30T22:55:55.216Z,94607.05
2018-06-30T22:58:21.580Z,94611.47
2018-06-30T23:00:47.912Z,94608.80
2018-06-30T23:03:14.227Z,94608.69
2018-06-30T23:05:40.578Z,94607.84
2018-06-30T23:08:06.886Z,94612.05
2018-06-30T23:10:33.261Z,94614.69
2018-06-30T23:12:59.619Z,94605.96
2018-06-30T23:15:26.001Z,94611.17
2018-06-30T23:17:52.368Z,94612.81
2018-06-30T23:20:18.712Z,94610.73
2018-06-30T23:22:45.105Z,94613.40
2018-06-30T23:25:11.434Z,94613.66
2018-06-30T23:27:37.796Z,94611.84
2018-06-30T23:30:04.155Z,94610.58
2018-06-30T23:32:30.525Z,94609.52
2018-06-30T23:34:56.884Z,94621.13
2018-06-30T23:37:23.215Z,94620.42
2018-06-30T23:39:49.534Z,94624.44
2018-06-30T23:42:15.895Z,94627.75
2018-06-30T23:44:42.244Z,94628.36
2018-06-30T23:47:08.548Z,94633.98
2018-06-30T23:49:34.897Z,94641.41
2018-06-30T23:52:01.228Z,94638.02
2018-06-30T23:54:27.598Z,94639.13
2018-06-30T23:56:53.943Z,94645.98
2018-06-30T23:59:20.275Z,94645.58
